Terminal Aerodrome Forecast
Issued by NWS

Home | Current Version | Previous Version | Text Only | Print | Product List | Glossary On
Versions: 1 2 3 4 5 6 7 8 9 10 11 12 13 14 15 16
000
FTUS43 KGRB 302333
TAFAUW
TAF
KAUW 302333Z 3100/3124 27015G22KT P6SM SCT080
     FM310130 27007KT P6SM SKC
     FM311400 28012G17KT P6SM SCT040 SCT070
     FM312300 29007KT P6SM SKC=

USA.gov is the U.S. government's official web portal to all federal, state and local government web resources and services.